Time;durP1;ratioP1;P1;durP2;ratioP2;P2;SDS_P1;SDS_P2;PMS_P1;PMS_P2;Temp;Humidity;BMP_temperature;BMP_pressure;BME280_temperature;BME280_humidity;BME280_pressure;Samples;Min_cycle;Max_cycle;Signal;HPM_P1;HPM_P2
2021/09/09 00:00:21;;;;;;;14.20;10.63;;;;;;;20.11;51.81;97771.50;8416980;28;20231;-71
2021/09/09 00:04:23;;;;;;;15.07;9.97;;;;;;;20.01;52.18;97767.97;8417707;28;20226;-70
2021/09/09 00:08:26;;;;;;;15.13;10.13;;;;;;;20.01;52.02;97768.84;8417959;28;20389;-70
2021/09/09 00:12:30;;;;;;;15.13;9.53;;;;;;;19.97;52.13;97766.59;8447048;28;20475;-70
2021/09/09 00:16:33;;;;;;;13.40;9.70;;;;;;;19.90;52.07;97771.56;8451161;28;20202;-70
2021/09/09 00:20:37;;;;;;;10.43;9.30;;;;;;;19.97;51.72;97758.69;8450830;28;20518;-70
2021/09/09 00:24:40;;;;;;;11.67;10.00;;;;;;;19.90;52.09;97755.78;8451025;28;20398;-70
2021/09/09 00:28:44;;;;;;;11.80;9.97;;;;;;;19.83;52.74;97755.47;8450884;28;20206;-70
2021/09/09 00:32:47;;;;;;;12.47;9.97;;;;;;;19.83;52.56;97749.38;8438072;28;20414;-70
2021/09/09 00:36:50;;;;;;;11.57;9.80;;;;;;;19.78;53.10;97748.94;8416979;28;20199;-70
2021/09/09 00:40:53;;;;;;;12.13;10.10;;;;;;;19.79;52.76;97750.63;8416770;28;20387;-70
2021/09/09 00:44:57;;;;;;;12.60;10.10;;;;;;;19.73;52.61;97746.72;8416805;28;20380;-70
2021/09/09 00:49:00;;;;;;;13.97;9.70;;;;;;;19.69;52.95;97750.53;8416527;28;20203;-70
2021/09/09 00:53:03;;;;;;;11.10;9.97;;;;;;;19.67;52.88;97745.41;8416716;28;20490;-70
2021/09/09 00:57:08;;;;;;;13.23;10.67;;;;;;;19.70;52.80;97755.66;8416491;28;20207;-71
2021/09/09 01:01:12;;;;;;;14.10;9.90;;;;;;;19.65;52.90;97741.25;8416446;28;20223;-70
2021/09/09 01:05:15;;;;;;;10.83;9.70;;;;;;;19.62;53.00;97744.13;8415598;28;20294;-70
2021/09/09 01:09:18;;;;;;;15.83;10.70;;;;;;;19.66;53.27;97745.53;8416112;28;20203;-70
2021/09/09 01:13:21;;;;;;;12.10;10.60;;;;;;;19.61;53.35;97748.56;8416285;28;20199;-70
2021/09/09 01:17:25;;;;;;;14.37;10.33;;;;;;;19.60;53.56;97741.63;8416086;28;20207;-70
2021/09/09 01:21:28;;;;;;;12.50;11.17;;;;;;;19.57;54.03;97746.31;8415954;28;20231;-70
2021/09/09 01:25:33;;;;;;;13.57;10.87;;;;;;;19.61;53.91;97745.94;8415861;28;20210;-71
2021/09/09 01:29:37;;;;;;;15.60;10.53;;;;;;;19.54;53.77;97739.53;8415939;28;20207;-70
2021/09/09 01:33:40;;;;;;;13.03;10.97;;;;;;;19.46;53.76;97747.25;8415687;28;20556;-70
2021/09/09 01:37:45;;;;;;;14.87;11.03;;;;;;;19.38;54.23;97742.63;8415828;28;20483;-70
2021/09/09 01:41:51;;;;;;;14.27;10.87;;;;;;;19.48;53.97;97745.31;8415677;28;20238;-70
2021/09/09 01:45:54;;;;;;;12.57;10.70;;;;;;;19.37;54.11;97748.00;8415781;28;20198;-70
2021/09/09 01:49:57;;;;;;;12.57;9.83;;;;;;;19.38;53.75;97747.88;8415609;28;20211;-70
2021/09/09 01:54:00;;;;;;;12.10;10.90;;;;;;;19.38;54.02;97747.88;8415563;28;20203;-71
2021/09/09 01:58:04;;;;;;;12.37;10.83;;;;;;;19.29;53.98;97748.66;8415358;28;20490;-70
2021/09/09 02:02:07;;;;;;;14.10;10.60;;;;;;;19.25;54.48;97740.19;8415073;28;20226;-71
2021/09/09 02:06:10;;;;;;;12.83;10.73;;;;;;;19.22;54.34;97743.06;8415148;28;20227;-70
2021/09/09 02:10:19;;;;;;;11.00;9.80;;;;;;;19.20;54.31;97738.91;8415296;28;20210;-70
2021/09/09 02:14:23;;;;;;;13.40;11.07;;;;;;;19.22;53.94;97739.63;8415489;28;20306;-70
2021/09/09 02:18:26;;;;;;;12.53;10.60;;;;;;;19.23;53.96;97746.50;8418048;28;20203;-71
2021/09/09 02:22:29;;;;;;;16.60;10.60;;;;;;;19.16;54.01;97737.50;8420997;28;20238;-70
2021/09/09 02:26:31;;;;;;;11.73;10.47;;;;;;;19.21;53.95;97733.53;8421104;28;20210;-70
2021/09/09 02:30:36;;;;;;;11.73;10.30;;;;;;;19.18;54.32;97727.72;8421179;28;20210;-70
2021/09/09 02:34:38;;;;;;;11.97;10.80;;;;;;;19.10;54.54;97726.53;8420936;28;20231;-70
2021/09/09 02:38:41;;;;;;;12.37;10.67;;;;;;;19.09;54.72;97729.28;8420570;28;20202;-70
2021/09/09 02:42:44;;;;;;;13.10;11.40;;;;;;;19.08;54.91;97731.09;8420735;28;20230;-70
2021/09/09 02:46:48;;;;;;;12.27;11.00;;;;;;;19.05;54.85;97717.38;8420566;28;20199;-70
2021/09/09 02:50:51;;;;;;;12.57;10.70;;;;;;;19.05;55.12;97714.75;8420332;28;20207;-70
2021/09/09 02:54:54;;;;;;;13.10;11.57;;;;;;;19.04;55.27;97710.47;8420280;28;20199;-70
2021/09/09 02:58:57;;;;;;;12.63;11.43;;;;;;;18.99;55.42;97707.41;8420364;28;20210;-70
2021/09/09 03:03:02;;;;;;;11.97;10.50;;;;;;;19.05;54.81;97705.09;8419670;28;20226;-70
2021/09/09 03:07:06;;;;;;;12.27;11.00;;;;;;;18.98;55.33;97700.47;8419796;28;20233;-70
2021/09/09 03:11:08;;;;;;;15.20;11.63;;;;;;;18.81;56.13;97701.88;8420011;28;20210;-70
2021/09/09 03:15:11;;;;;;;13.50;12.00;;;;;;;18.85;56.32;97691.03;8419677;28;20205;-70
2021/09/09 03:19:16;;;;;;;13.50;11.03;;;;;;;18.90;55.78;97690.63;8419372;28;20203;-71
2021/09/09 03:23:18;;;;;;;14.10;11.50;;;;;;;18.91;56.05;97685.25;8419205;28;20203;-70
2021/09/09 03:27:21;;;;;;;15.47;11.17;;;;;;;18.92;55.70;97686.94;8419148;28;20206;-71
2021/09/09 03:31:24;;;;;;;13.70;11.20;;;;;;;18.95;55.68;97686.66;8418395;28;20212;-71
2021/09/09 03:35:28;;;;;;;13.20;11.90;;;;;;;18.89;56.29;97683.72;8426610;28;20237;-70
2021/09/09 03:39:31;;;;;;;12.80;11.50;;;;;;;18.90;56.10;97688.00;8452314;28;20210;-71
2021/09/09 03:43:34;;;;;;;14.53;11.33;;;;;;;18.87;56.05;97683.84;8452419;28;20397;-70
2021/09/09 03:47:37;;;;;;;13.20;11.80;;;;;;;18.84;56.45;97678.03;8452218;28;20213;-71
2021/09/09 03:51:41;;;;;;;15.07;11.67;;;;;;;18.88;56.11;97679.44;8451922;28;20209;-70
2021/09/09 03:55:44;;;;;;;13.10;11.70;;;;;;;18.76;56.13;97676.81;8451705;28;20198;-70
2021/09/09 03:59:47;;;;;;;14.60;11.70;;;;;;;18.85;55.92;97675.28;8451632;28;20225;-71
2021/09/09 04:03:50;;;;;;;14.53;11.50;;;;;;;18.80;56.08;97682.69;8422155;28;20498;-71
2021/09/09 04:07:54;;;;;;;13.67;11.53;;;;;;;18.80;55.85;97684.44;8418072;28;20609;-71
2021/09/09 04:11:57;;;;;;;15.93;11.13;;;;;;;18.78;55.82;97686.38;8417753;28;20202;-71
2021/09/09 04:16:00;;;;;;;12.90;11.50;;;;;;;18.69;56.01;97688.78;8417766;28;20203;-71
2021/09/09 04:20:06;;;;;;;15.80;11.90;;;;;;;18.67;55.79;97689.88;8417602;28;20564;-70
2021/09/09 04:24:11;;;;;;;16.07;12.20;;;;;;;18.63;56.07;97686.66;8417391;28;20230;-71
2021/09/09 04:28:14;;;;;;;13.10;11.70;;;;;;;18.66;55.91;97678.56;8417241;28;20214;-70
2021/09/09 04:32:17;;;;;;;17.07;12.93;;;;;;;18.60;56.01;97681.69;8417040;28;20203;-71
2021/09/09 04:36:20;;;;;;;13.93;11.93;;;;;;;18.62;56.13;97690.25;8416977;28;20206;-71
2021/09/09 04:40:24;;;;;;;15.97;11.30;;;;;;;18.55;55.98;97689.91;8416812;28;20226;-70
2021/09/09 04:44:26;;;;;;;13.90;10.97;;;;;;;18.53;56.44;97680.50;8416859;28;20206;-71
2021/09/09 04:48:29;;;;;;;14.33;11.40;;;;;;;18.47;56.43;97689.72;8416459;28;20199;-70
2021/09/09 04:52:32;;;;;;;16.47;11.63;;;;;;;18.56;55.64;97691.59;8416579;28;20202;-70
2021/09/09 04:56:36;;;;;;;14.00;10.97;;;;;;;18.27;56.88;97691.28;8416421;28;20206;-70
2021/09/09 05:00:39;;;;;;;14.60;11.27;;;;;;;18.60;55.97;97693.94;8416291;28;20227;-70
2021/09/09 05:04:42;;;;;;;12.43;10.90;;;;;;;18.63;55.91;97686.66;8416204;28;20251;-70
2021/09/09 05:08:46;;;;;;;18.37;10.97;;;;;;;18.64;55.49;97688.34;8416282;28;20207;-70
2021/09/09 05:12:50;;;;;;;16.63;11.27;;;;;;;18.70;55.77;97693.06;8416286;28;20390;-71
2021/09/09 05:16:55;;;;;;;16.83;13.53;;;;;;;18.61;55.64;97690.38;8416274;28;20270;-70
2021/09/09 05:20:58;;;;;;;15.27;11.50;;;;;;;18.61;55.99;97685.97;8416050;28;20575;-71
2021/09/09 05:25:01;;;;;;;14.37;11.27;;;;;;;18.83;55.04;97687.69;8416045;28;20202;-70
2021/09/09 05:29:05;;;;;;;15.23;11.60;;;;;;;18.89;54.92;97695.03;8415900;28;20203;-70
2021/09/09 05:33:08;;;;;;;22.83;11.60;;;;;;;19.00;54.86;97701.19;8415665;28;20222;-70
2021/09/09 05:37:13;;;;;;;20.13;11.87;;;;;;;18.91;54.73;97701.00;8415906;28;20386;-70
2021/09/09 05:41:16;;;;;;;24.07;11.43;;;;;;;18.97;54.80;97694.41;8415652;28;20235;-71
2021/09/09 05:45:22;;;;;;;22.27;11.27;;;;;;;19.23;54.54;97697.50;8415719;28;20203;-70
2021/09/09 05:49:27;;;;;;;18.77;11.80;;;;;;;19.08;53.83;97701.41;8415712;28;20386;-70
2021/09/09 05:53:30;;;;;;;14.20;11.00;;;;;;;19.03;53.99;97700.94;8418887;28;20202;-70
2021/09/09 05:57:33;;;;;;;14.80;11.77;;;;;;;18.77;55.18;97698.63;8421926;28;20397;-70
2021/09/09 06:01:37;;;;;;;16.67;10.87;;;;;;;18.96;54.68;97703.22;8421615;28;20264;-70
2021/09/09 06:05:41;;;;;;;15.10;10.97;;;;;;;19.47;53.19;97701.63;8421672;28;20300;-70
2021/09/09 06:09:44;;;;;;;13.43;11.50;;;;;;;19.58;52.30;97696.28;8421605;28;20211;-70
2021/09/09 06:13:47;;;;;;;13.10;10.67;;;;;;;19.37;52.85;97706.00;8421523;28;20203;-70
2021/09/09 06:17:51;;;;;;;16.23;11.93;;;;;;;19.46;52.39;97703.41;8421577;28;20203;-70
2021/09/09 06:21:54;;;;;;;12.93;10.43;;;;;;;19.80;51.97;97697.94;8421114;28;20223;-70
2021/09/09 06:25:56;;;;;;;13.67;12.27;;;;;;;19.50;52.07;97702.19;8421157;28;20199;-70
2021/09/09 06:29:59;;;;;;;17.90;12.03;;;;;;;19.48;52.58;97704.13;8421010;28;20392;-70
2021/09/09 06:34:07;;;;;;;14.60;11.50;;;;;;;19.26;52.63;97694.59;8421078;28;20219;-70
2021/09/09 06:38:10;;;;;;;13.90;11.20;;;;;;;19.86;51.29;97692.16;8420882;28;20203;-70
2021/09/09 06:42:12;;;;;;;12.73;10.93;;;;;;;20.06;50.60;97694.81;8420497;28;20222;-70
2021/09/09 06:46:15;;;;;;;14.57;10.17;;;;;;;20.11;49.04;97697.91;8420433;28;20218;-70
2021/09/09 06:50:21;;;;;;;15.43;10.63;;;;;;;20.02;50.09;97693.44;8420244;28;20198;-70
2021/09/09 06:54:24;;;;;;;16.50;10.43;;;;;;;20.46;49.48;97691.31;8420374;28;20207;-70
2021/09/09 06:58:29;;;;;;;12.40;10.60;;;;;;;20.73;49.09;97693.28;8420052;28;20205;-70
2021/09/09 07:02:32;;;;;;;13.37;10.07;;;;;;;20.79;49.30;97697.16;8419807;28;20226;-70
2021/09/09 07:06:36;;;;;;;16.07;10.87;;;;;;;20.66;48.79;97692.19;8418437;28;20413;-70
2021/09/09 07:10:42;;;;;;;16.97;10.70;;;;;;;20.79;49.30;97698.00;8419942;28;20199;-70
2021/09/09 07:14:48;;;;;;;14.93;9.53;;;;;;;21.25;48.13;97691.16;8419655;28;20223;-70
2021/09/09 07:18:51;;;;;;;15.80;10.33;;;;;;;21.58;47.26;97701.38;8419499;28;20231;-70
2021/09/09 07:22:55;;;;;;;14.40;10.97;;;;;;;21.37;47.16;97699.72;8419146;28;20234;-70
2021/09/09 07:26:58;;;;;;;15.50;10.53;;;;;;;21.22;47.59;97704.59;8419290;28;20208;-70
2021/09/09 07:31:01;;;;;;;12.47;9.50;;;;;;;21.94;46.97;97710.22;8419033;28;20395;-70
2021/09/09 07:35:07;;;;;;;16.73;10.43;;;;;;;22.03;45.86;97714.63;8418838;28;20231;-70
2021/09/09 07:39:12;;;;;;;16.63;10.33;;;;;;;22.08;45.96;97711.53;8418788;28;20205;-70
2021/09/09 07:43:15;;;;;;;17.50;10.50;;;;;;;22.31;45.05;97705.91;8418603;28;20423;-70
2021/09/09 07:47:18;;;;;;;16.10;9.57;;;;;;;22.64;45.63;97704.44;8418823;28;20252;-70
2021/09/09 07:51:22;;;;;;;16.47;9.40;;;;;;;22.74;45.18;97710.47;8418511;28;20203;-70
2021/09/09 07:55:27;;;;;;;13.87;9.37;;;;;;;23.29;43.67;97721.84;8418443;28;20491;-70
2021/09/09 07:59:29;;;;;;;17.67;10.07;;;;;;;22.79;43.98;97718.75;8418222;28;20269;-70
2021/09/09 08:03:32;;;;;;;16.07;10.30;;;;;;;23.23;43.34;97716.16;8417746;28;20231;-70
2021/09/09 08:07:39;;;;;;;18.37;10.90;;;;;;;23.49;42.55;97717.16;8417804;28;20541;-70
2021/09/09 08:11:43;;;;;;;15.80;10.67;;;;;;;23.64;43.61;97709.50;8417948;28;20373;-68
2021/09/09 08:15:46;;;;;;;14.97;9.90;;;;;;;23.52;43.62;97711.56;8417485;28;20513;-68
2021/09/09 08:19:49;;;;;;;20.57;10.60;;;;;;;23.80;42.93;97713.09;8417305;28;20280;-68
2021/09/09 08:23:52;;;;;;;16.50;10.13;;;;;;;23.97;42.56;97713.13;8417309;28;20233;-68
2021/09/09 08:27:56;;;;;;;13.40;9.60;;;;;;;24.59;41.87;97715.50;8417131;28;20209;-68
2021/09/09 08:31:59;;;;;;;13.93;10.40;;;;;;;24.54;41.41;97710.72;8417167;28;20389;-64
2021/09/09 08:36:04;;;;;;;10.77;9.00;;;;;;;24.94;41.66;97721.50;8416959;28;20411;-64
2021/09/09 08:40:09;;;;;;;11.73;9.33;;;;;;;25.06;41.00;97719.38;8416930;28;20206;-65
2021/09/09 08:44:16;;;;;;;13.73;10.40;;;;;;;24.78;41.37;97719.66;8416857;28;20230;-65
2021/09/09 08:48:19;;;;;;;12.40;9.50;;;;;;;24.83;42.02;97721.81;8416727;28;20202;-64
2021/09/09 08:52:22;;;;;;;13.10;9.97;;;;;;;24.61;42.54;97725.94;8416703;28;20204;-65
2021/09/09 08:56:24;;;;;;;15.57;10.60;;;;;;;24.66;42.36;97731.59;8415233;28;20203;-64
2021/09/09 09:00:29;;;;;;;14.10;10.20;;;;;;;24.46;43.15;97733.66;8416421;28;20505;-64
2021/09/09 09:04:36;;;;;;;12.13;9.07;;;;;;;25.27;42.02;97726.84;8415974;28;20242;-64
2021/09/09 09:08:49;;;;;;;17.73;10.53;;;;;;;25.60;41.09;97721.47;8416404;28;20203;-64
2021/09/09 09:12:52;;;;;;;11.67;9.93;;;;;;;25.55;40.72;97727.28;8416476;28;20206;-64
2021/09/09 09:16:58;;;;;;;18.40;10.90;;;;;;;25.61;40.82;97721.31;8416023;28;20215;-65
2021/09/09 09:21:01;;;;;;;13.37;9.83;;;;;;;25.62;41.46;97727.44;8416336;28;20380;-65
2021/09/09 09:25:04;;;;;;;15.33;9.67;;;;;;;26.31;40.67;97719.75;8415859;28;20227;-64
2021/09/09 09:29:07;;;;;;;16.10;9.00;;;;;;;26.64;40.42;97711.63;8415404;28;20222;-67
2021/09/09 09:33:12;;;;;;;10.67;9.57;;;;;;;26.61;39.74;97714.63;8416021;28;20226;-65
2021/09/09 09:37:20;;;;;;;10.60;9.37;;;;;;;26.88;39.41;97714.13;8415870;28;20200;-64
2021/09/09 09:41:25;;;;;;;11.80;9.50;;;;;;;27.07;38.78;97715.47;8415931;28;20527;-64
2021/09/09 09:45:36;;;;;;;11.83;8.27;;;;;;;27.57;39.06;97715.00;8415698;28;20267;-61
2021/09/09 09:49:43;;;;;;;13.33;8.73;;;;;;;27.94;37.66;97718.63;8415671;28;20487;-61
2021/09/09 09:54:07;;;;;;;18.17;8.40;;;;;;;28.25;38.10;97719.25;8415705;28;20203;-66
2021/09/09 09:58:10;;;;;;;11.33;8.53;;;;;;;28.50;37.15;97718.88;8415494;28;20254;-65
2021/09/09 10:02:13;;;;;;;10.17;8.70;;;;;;;28.59;37.15;97708.97;8415157;28;20236;-66
2021/09/09 10:06:17;;;;;;;10.30;8.70;;;;;;;29.03;36.17;97718.63;8415133;28;20243;-66
2021/09/09 10:10:20;;;;;;;10.80;7.60;;;;;;;29.38;35.72;97706.22;8415495;28;20209;-65
2021/09/09 10:14:25;;;;;;;15.60;8.20;;;;;;;29.51;35.74;97704.66;8415734;28;20204;-66
2021/09/09 10:18:27;;;;;;;12.67;8.00;;;;;;;29.66;35.18;97702.69;8415325;28;20204;-66
2021/09/09 10:22:32;;;;;;;9.13;7.80;;;;;;;29.84;34.64;97702.22;8415123;28;20237;-66
2021/09/09 10:26:35;;;;;;;11.80;8.50;;;;;;;29.80;34.83;97700.97;8415115;28;20199;-66
2021/09/09 10:31:01;;;;;;;13.10;8.70;;;;;;;29.34;35.83;97691.63;8414910;28;20276;-67
2021/09/09 10:35:26;;;;;;;10.67;8.40;;;;;;;29.73;36.15;97684.09;8414924;28;20452;-66
2021/09/09 10:40:05;;;;;;;12.10;8.03;;;;;;;29.80;35.15;97688.44;8417853;28;20209;-66
2021/09/09 10:44:11;;;;;;;13.67;8.37;;;;;;;29.78;34.72;97687.00;8438658;28;20223;-66
2021/09/09 10:48:20;;;;;;;13.33;8.50;;;;;;;29.96;34.70;97684.59;8453328;28;20209;-64
2021/09/09 10:52:23;;;;;;;10.83;8.57;;;;;;;29.72;36.19;97693.06;8453812;28;20202;-64
2021/09/09 10:56:27;;;;;;;11.63;7.93;;;;;;;30.11;34.89;97684.47;8453696;28;20202;-64
2021/09/09 11:00:54;;;;;;;10.70;8.57;;;;;;;30.19;34.77;97692.28;8452144;28;20201;-64
2021/09/09 11:05:01;;;;;;;11.23;7.83;;;;;;;30.25;34.88;97685.31;8408672;28;20248;-64
2021/09/09 11:09:14;;;;;;;14.70;7.37;;;;;;;30.61;34.67;97673.53;8387833;28;20209;-64
2021/09/09 11:13:28;;;;;;;13.47;7.63;;;;;;;30.64;34.67;97675.00;8386434;28;20205;-64
2021/09/09 11:17:32;;;;;;;8.97;7.07;;;;;;;30.40;34.50;97691.34;8386380;28;20200;-65
2021/09/09 11:21:36;;;;;;;9.53;7.30;;;;;;;30.75;34.74;97685.09;8386459;28;20200;-63
2021/09/09 11:25:39;;;;;;;8.83;7.10;;;;;;;30.94;34.28;97678.13;8397041;28;20223;-65
2021/09/09 11:29:42;;;;;;;11.10;8.03;;;;;;;30.63;34.42;97679.50;8410931;28;20240;-65
2021/09/09 11:33:54;;;;;;;8.10;7.13;;;;;;;31.08;34.84;97670.94;8418978;28;20233;-65
2021/09/09 11:37:57;;;;;;;8.80;7.20;;;;;;;31.02;33.89;97677.09;8404047;28;20199;-65
2021/09/09 11:42:00;;;;;;;9.73;7.57;;;;;;;30.77;34.04;97667.00;8401393;28;20231;-64
2021/09/09 11:46:04;;;;;;;7.70;6.90;;;;;;;30.93;34.73;97663.94;8401162;28;20655;-65
2021/09/09 11:50:11;;;;;;;8.17;6.90;;;;;;;31.06;34.51;97662.28;8395115;28;20496;-64
2021/09/09 11:54:17;;;;;;;10.00;7.63;;;;;;;30.99;34.09;97665.78;8395554;28;20209;-66
2021/09/09 11:58:38;;;;;;;9.20;7.23;;;;;;;30.85;34.09;97657.94;8400759;28;20194;-65
2021/09/09 12:02:43;;;;;;;8.07;7.07;;;;;;;31.16;35.39;97657.34;8412997;28;20221;-66
2021/09/09 12:06:48;;;;;;;8.63;7.53;;;;;;;30.99;34.47;97654.25;8400556;28;20244;-65
2021/09/09 12:10:52;;;;;;;8.17;7.03;;;;;;;31.30;35.19;97655.47;8400523;28;20194;-66
2021/09/09 12:14:59;;;;;;;14.27;7.30;;;;;;;31.08;33.84;97653.03;8400458;28;20528;-67
2021/09/09 12:19:06;;;;;;;8.23;7.30;;;;;;;31.19;35.05;97651.59;8400248;28;20204;-66
2021/09/09 12:23:17;;;;;;;6.70;6.10;;;;;;;31.51;34.32;97644.56;8399966;28;20236;-68
2021/09/09 12:27:20;;;;;;;9.20;7.07;;;;;;;30.84;35.31;97650.94;8399948;28;20479;-68
2021/09/09 12:31:34;;;;;;;8.23;6.73;;;;;;;31.07;34.88;97643.38;8399819;28;20196;-68
2021/09/09 12:35:38;;;;;;;8.43;7.00;;;;;;;31.26;34.28;97640.88;8399639;28;20229;-68
2021/09/09 12:39:47;;;;;;;9.47;7.30;;;;;;;30.38;36.26;97641.84;8399494;28;20193;-68
2021/09/09 12:43:51;;;;;;;9.67;7.40;;;;;;;30.32;36.16;97638.13;8399114;28;20574;-68
2021/09/09 12:48:09;;;;;;;7.43;6.73;;;;;;;29.98;37.99;97634.50;8401382;28;20203;-68
2021/09/09 12:52:13;;;;;;;10.10;7.10;;;;;;;30.86;35.48;97627.50;8399273;28;20526;-68
2021/09/09 12:56:17;;;;;;;10.40;7.57;;;;;;;30.73;35.23;97634.50;8401373;28;20199;-67
2021/09/09 13:00:20;;;;;;;8.17;7.23;;;;;;;30.95;34.83;97632.47;8394821;28;20383;-68
2021/09/09 13:04:23;;;;;;;10.60;7.00;;;;;;;31.02;34.49;97628.97;8398129;28;20242;-68
2021/09/09 13:08:26;;;;;;;8.50;7.33;;;;;;;31.31;34.41;97622.34;8397924;28;20213;-69
2021/09/09 13:12:30;;;;;;;12.60;7.20;;;;;;;31.27;34.41;97615.78;8397991;28;20194;-69
2021/09/09 13:16:35;;;;;;;9.67;7.67;;;;;;;30.76;34.46;97617.22;8400962;28;20201;-69
2021/09/09 13:20:38;;;;;;;9.17;7.00;;;;;;;30.44;35.56;97622.34;8398676;28;20229;-68
2021/09/09 13:24:44;;;;;;;8.53;7.00;;;;;;;30.71;34.88;97620.53;8398850;28;20230;-69
2021/09/09 13:28:48;;;;;;;9.63;7.57;;;;;;;29.73;36.61;97622.72;8398128;28;20197;-69
2021/09/09 13:32:51;;;;;;;7.87;6.77;;;;;;;30.39;35.62;97612.28;8397851;28;20212;-68
2021/09/09 13:36:54;;;;;;;11.53;7.07;;;;;;;30.56;35.39;97604.69;8396625;28;20447;-68
2021/09/09 13:40:57;;;;;;;9.63;6.80;;;;;;;31.07;34.97;97605.09;8398688;28;20413;-69
2021/09/09 13:45:02;;;;;;;9.20;6.83;;;;;;;31.02;35.16;97591.56;8398198;28;20222;-69
2021/09/09 13:49:05;;;;;;;7.93;6.80;;;;;;;30.18;36.46;97593.72;8398256;28;20203;-69
2021/09/09 13:53:08;;;;;;;7.90;6.70;;;;;;;30.36;35.82;97599.31;8398126;28;20198;-69
2021/09/09 13:57:11;;;;;;;8.23;6.87;;;;;;;30.84;34.45;97594.81;8398065;28;20213;-67
2021/09/09 14:01:15;;;;;;;10.57;8.30;;;;;;;31.08;34.54;97596.88;8399924;28;20387;-66
2021/09/09 14:05:19;;;;;;;29.90;16.67;;;;;;;31.13;34.62;97596.25;8397954;28;20342;-66
2021/09/09 14:09:22;;;;;;;35.90;29.77;;;;;;;30.70;34.40;97592.16;8396677;28;20201;-66
2021/09/09 14:13:25;;;;;;;46.63;39.33;;;;;;;30.04;35.59;97600.84;8399322;28;20205;-66
2021/09/09 14:17:30;;;;;;;51.97;45.63;;;;;;;30.62;35.09;97587.00;8404048;28;20189;-66
2021/09/09 14:21:34;;;;;;;19.40;11.87;;;;;;;30.80;34.60;97586.38;8404122;28;20193;-66
2021/09/09 14:25:37;;;;;;;9.33;6.47;;;;;;;31.08;34.38;97583.50;8403988;28;20409;-67
2021/09/09 14:29:40;;;;;;;9.13;6.60;;;;;;;30.88;34.50;97585.34;8403723;28;20203;-66
2021/09/09 14:33:45;;;;;;;9.03;6.63;;;;;;;29.93;36.24;97590.75;8403426;28;20225;-67
2021/09/09 14:37:49;;;;;;;10.63;6.60;;;;;;;29.36;36.82;97587.41;8403564;28;20194;-67
2021/09/09 14:41:52;;;;;;;9.97;5.90;;;;;;;29.31;36.63;97587.19;8401900;28;20197;-66
2021/09/09 14:45:55;;;;;;;9.50;6.13;;;;;;;29.60;37.21;97581.56;8403218;28;20215;-67
2021/09/09 14:50:00;;;;;;;9.60;6.37;;;;;;;28.99;37.49;97578.75;8401426;28;20196;-67
2021/09/09 14:54:03;;;;;;;10.97;6.53;;;;;;;29.13;37.42;97574.34;8402968;28;20200;-67
2021/09/09 14:58:06;;;;;;;9.57;6.23;;;;;;;28.79;37.76;97581.28;8402945;28;20235;-67
2021/09/09 15:02:09;;;;;;;7.93;6.20;;;;;;;28.61;37.90;97579.91;8404871;28;20202;-67
2021/09/09 15:06:14;;;;;;;7.83;6.30;;;;;;;28.97;37.59;97578.94;8413267;28;20508;-67
2021/09/09 15:10:17;;;;;;;7.10;6.03;;;;;;;28.75;38.47;97570.19;8401742;28;20495;-67
2021/09/09 15:14:20;;;;;;;11.63;6.13;;;;;;;28.62;38.53;97575.41;8402971;28;20207;-67
2021/09/09 15:18:22;;;;;;;7.63;6.10;;;;;;;28.58;38.96;97574.97;8404848;28;20212;-66
2021/09/09 15:22:29;;;;;;;6.50;5.67;;;;;;;28.59;39.00;97575.78;8403395;28;20191;-66
2021/09/09 15:26:32;;;;;;;9.93;6.07;;;;;;;29.02;38.37;97573.88;8404208;28;20226;-66
2021/09/09 15:30:35;;;;;;;8.33;5.73;;;;;;;28.98;38.20;97575.28;8385976;28;20329;-67
2021/09/09 15:34:37;;;;;;;6.67;5.90;;;;;;;28.87;38.30;97570.47;8406451;28;20379;-68
2021/09/09 15:38:42;;;;;;;10.03;6.27;;;;;;;28.76;38.55;97577.16;8418819;28;20201;-67
2021/09/09 15:42:46;;;;;;;8.87;5.80;;;;;;;28.84;39.18;97566.38;8418681;28;20206;-67
2021/09/09 15:46:48;;;;;;;8.40;6.10;;;;;;;28.85;38.45;97570.66;8418657;28;20230;-68
2021/09/09 15:50:51;;;;;;;14.47;6.20;;;;;;;28.76;38.92;97569.16;8418394;28;20505;-68
2021/09/09 15:54:56;;;;;;;7.77;4.83;;;;;;;28.75;38.81;97570.19;8407668;28;20195;-68
2021/09/09 15:58:58;;;;;;;8.30;4.50;;;;;;;28.66;39.52;97569.50;8403928;28;20207;-68
2021/09/09 16:03:02;;;;;;;9.07;5.30;;;;;;;28.47;39.86;97562.97;8397597;28;20199;-68
2021/09/09 16:07:05;;;;;;;10.23;5.33;;;;;;;28.39;40.24;97557.78;8383806;28;20336;-67
2021/09/09 16:11:09;;;;;;;6.77;4.63;;;;;;;28.31;40.22;97565.06;8384529;28;20466;-66
2021/09/09 16:15:12;;;;;;;10.07;5.63;;;;;;;28.17;40.53;97569.44;8384783;28;20213;-67
2021/09/09 16:19:15;;;;;;;8.50;5.00;;;;;;;27.94;41.43;97564.31;8390155;28;20272;-67
2021/09/09 16:23:18;;;;;;;8.30;5.50;;;;;;;27.76;41.87;97572.66;8405488;28;20198;-67
2021/09/09 16:27:22;;;;;;;9.27;5.47;;;;;;;27.63;42.01;97568.84;8400643;28;20230;-68
2021/09/09 16:31:25;;;;;;;7.37;5.53;;;;;;;27.55;42.47;97568.94;8395996;28;20197;-67
2021/09/09 16:35:28;;;;;;;9.63;5.60;;;;;;;27.45;42.76;97579.84;8401320;28;20262;-66
2021/09/09 16:39:30;;;;;;;6.40;5.43;;;;;;;27.33;43.77;97568.03;8400486;28;20480;-66
2021/09/09 16:43:35;;;;;;;8.43;5.63;;;;;;;27.21;44.12;97572.16;8398682;28;20200;-66
2021/09/09 16:47:38;;;;;;;9.53;5.80;;;;;;;27.09;44.66;97571.75;8397726;28;20248;-67
2021/09/09 16:51:41;;;;;;;7.10;5.50;;;;;;;27.08;44.92;97575.44;8396353;28;20499;-67
2021/09/09 16:55:44;;;;;;;10.90;7.37;;;;;;;27.00;45.28;97571.03;8402403;28;20389;-67
2021/09/09 16:59:49;;;;;;;13.47;7.67;;;;;;;26.94;45.34;97571.78;8416502;28;20207;-66
2021/09/09 17:03:52;;;;;;;10.50;7.97;;;;;;;26.85;45.45;97576.31;8416382;28;20200;-66
2021/09/09 17:07:55;;;;;;;8.77;6.80;;;;;;;26.83;45.70;97575.69;8401871;28;20238;-66
2021/09/09 17:11:58;;;;;;;13.83;7.33;;;;;;;26.74;46.34;97579.41;8413207;28;20196;-66
2021/09/09 17:16:03;;;;;;;15.47;7.17;;;;;;;26.64;46.53;97571.72;8416278;28;20324;-66
2021/09/09 17:20:07;;;;;;;11.23;6.40;;;;;;;26.62;46.75;97586.19;8408025;28;20211;-67
2021/09/09 17:24:12;;;;;;;8.23;6.30;;;;;;;26.59;47.04;97584.69;8398153;28;20388;-66
2021/09/09 17:28:16;;;;;;;9.50;6.23;;;;;;;26.57;47.25;97584.00;8398619;28;20228;-65
2021/09/09 17:32:20;;;;;;;7.97;5.93;;;;;;;26.57;46.91;97591.16;8398329;28;20193;-66
2021/09/09 17:36:23;;;;;;;9.87;6.20;;;;;;;26.48;47.42;97601.00;8393743;28;20198;-65
2021/09/09 17:40:27;;;;;;;12.40;6.50;;;;;;;26.37;48.02;97599.63;8398801;28;20193;-65
2021/09/09 17:44:31;;;;;;;10.83;7.23;;;;;;;26.31;48.03;97606.47;8398617;28;20543;-65
2021/09/09 17:48:35;;;;;;;9.10;6.50;;;;;;;26.20;48.86;97613.97;8411663;28;20499;-65
2021/09/09 17:52:39;;;;;;;12.17;6.33;;;;;;;26.10;49.46;97623.00;8405093;28;20198;-65
2021/09/09 17:56:42;;;;;;;9.83;6.10;;;;;;;26.09;49.70;97621.34;8403245;28;20396;-65
2021/09/09 18:00:45;;;;;;;9.30;5.93;;;;;;;25.96;49.69;97623.75;8408992;28;20200;-65
2021/09/09 18:04:50;;;;;;;11.23;6.37;;;;;;;25.95;49.91;97632.72;8421546;28;20261;-65
2021/09/09 18:08:53;;;;;;;9.17;5.57;;;;;;;25.94;49.38;97626.56;8422119;28;20509;-65
2021/09/09 18:12:56;;;;;;;8.50;6.20;;;;;;;25.87;49.52;97636.16;8421831;28;20203;-65
2021/09/09 18:16:59;;;;;;;8.63;5.80;;;;;;;25.83;49.54;97645.47;8421517;28;20207;-65
2021/09/09 18:21:03;;;;;;;10.57;6.10;;;;;;;25.78;49.38;97657.59;8421456;28;20201;-66
2021/09/09 18:25:07;;;;;;;11.70;6.07;;;;;;;25.67;49.90;97657.00;8421386;28;20243;-65
2021/09/09 18:29:10;;;;;;;9.83;6.27;;;;;;;25.64;49.93;97661.81;8421218;28;20222;-65
2021/09/09 18:33:14;;;;;;;11.10;6.10;;;;;;;25.61;49.92;97659.47;8420951;28;20229;-65
2021/09/09 18:37:18;;;;;;;34.17;7.10;;;;;;;25.61;50.43;97675.41;8420551;28;20197;-67
2021/09/09 18:41:21;;;;;;;13.63;5.67;;;;;;;25.58;50.28;97673.91;8406213;28;20206;-66
2021/09/09 18:45:25;;;;;;;9.63;4.97;;;;;;;25.45;50.56;97681.56;8418925;28;20232;-66
2021/09/09 18:49:28;;;;;;;8.43;4.63;;;;;;;25.36;50.52;97686.09;8420321;28;20205;-66
2021/09/09 18:53:34;;;;;;;8.87;4.03;;;;;;;25.34;50.15;97685.41;8420356;28;20271;-66